Cummings, North Dakota
Current Conditions -  °F | °C
As of 5:53 PM on Saturday 22 Nov 2014 (Local Time) from KGFK Reporting Station
Overcast Overcast  
Wind Chill: 31°   Ceiling: 11000
Heat Index: 36°   Visibility: 10mi
Dew Point: 30°   Wind: 6mph
Humidity: 79%   Direction: 120°ESE
Pressure: 29.42"   Gusts: NA
Location:  47.51°N, 97.08°W
Report Text: KGFK 222353Z 12005KT 10SM OVC110 02/M01 A2942 RMK AO2 SLP973 T00221011 10061 20022 56015
Loading
Personal Weather Stations






























Interactive Weather Map New forecast layout! Learn more

10-Day Weather Forecast

Advertisements
Track Severe Weather on mobile